createdAt,value
2022-12-23T00:00:43.179Z,10.20
2022-12-23T00:03:10.082Z,10.20
2022-12-23T00:05:41.146Z,10.20
2022-12-23T00:08:08.578Z,10.20
2022-12-23T00:10:39.461Z,10.20
2022-12-23T00:13:26.258Z,10.10
2022-12-23T00:16:05.835Z,10.20
2022-12-23T00:18:32.899Z,10.20
2022-12-23T00:21:08.939Z,10.20
2022-12-23T00:23:39.548Z,10.20
2022-12-23T00:26:07.515Z,10.20
2022-12-23T00:28:34.325Z,10.20
2022-12-23T00:31:06.785Z,10.20
2022-12-23T00:33:45.943Z,10.30
2022-12-23T00:36:24.855Z,10.30
2022-12-23T00:39:10.916Z,10.30
2022-12-23T00:41:57.242Z,10.30
2022-12-23T00:44:24.777Z,10.30
2022-12-23T00:46:51.598Z,10.30
2022-12-23T00:49:38.416Z,10.30
2022-12-23T00:52:09.224Z,10.30
2022-12-23T00:54:36.436Z,10.30
2022-12-23T00:57:03.804Z,10.30
2022-12-23T00:59:30.671Z,10.30
2022-12-23T01:02:15.904Z,10.30
2022-12-23T01:05:01.191Z,10.30
2022-12-23T01:07:27.980Z,10.30
2022-12-23T01:09:54.743Z,10.30
2022-12-23T01:12:21.579Z,10.30
2022-12-23T01:14:48.793Z,10.30
2022-12-23T01:17:15.712Z,10.30
2022-12-23T01:19:42.697Z,10.30
2022-12-23T01:22:09.561Z,10.30
2022-12-23T01:24:36.405Z,10.20
2022-12-23T01:27:03.362Z,10.20
2022-12-23T01:29:30.228Z,10.20
2022-12-23T01:31:57.108Z,10.20
2022-12-23T01:34:24.092Z,10.20
2022-12-23T01:36:50.925Z,10.20
2022-12-23T01:39:17.805Z,10.20
2022-12-23T01:42:03.270Z,10.20
2022-12-23T01:44:59.905Z,10.20
2022-12-23T01:47:50.723Z,10.20
2022-12-23T01:50:35.522Z,10.20
2022-12-23T01:53:22.041Z,10.20
2022-12-23T01:56:01.959Z,10.10
2022-12-23T01:58:32.256Z,10.10
2022-12-23T02:01:18.058Z,10.10
2022-12-23T02:03:46.989Z,10.10
2022-12-23T02:06:45.020Z,10.20
2022-12-23T02:09:22.709Z,10.10
2022-12-23T02:12:08.124Z,10.10
2022-12-23T02:15:40.019Z,10.20
2022-12-23T02:18:54.363Z,10.10
2022-12-23T02:21:52.439Z,10.10
2022-12-23T02:24:52.131Z,10.10
2022-12-23T02:27:43.474Z,10.10
2022-12-23T02:38:27.992Z,9.90
2022-12-23T02:41:23.152Z,9.90
2022-12-23T02:43:59.146Z,9.90
2022-12-23T02:46:51.362Z,9.90
2022-12-23T02:49:30.706Z,10.00
2022-12-23T02:52:02.418Z,10.00
2022-12-23T02:54:39.129Z,10.00
2022-12-23T02:57:08.787Z,10.00
2022-12-23T02:59:47.166Z,10.10
2022-12-23T03:02:14.389Z,10.10
2022-12-23T03:04:42.259Z,10.10
2022-12-23T03:07:30.822Z,10.10
2022-12-23T03:10:22.621Z,10.10
2022-12-23T03:13:27.040Z,10.10
2022-12-23T03:16:43.900Z,10.10
2022-12-23T03:19:31.999Z,10.10
2022-12-23T03:22:38.570Z,10.10
2022-12-23T03:25:22.114Z,10.10
2022-12-23T03:28:09.082Z,10.10
2022-12-23T03:30:39.414Z,10.10
2022-12-23T03:33:14.109Z,10.10
2022-12-23T03:35:53.859Z,10.10
2022-12-23T03:38:23.072Z,10.10
2022-12-23T03:40:58.699Z,10.10
2022-12-23T03:43:31.713Z,10.10
2022-12-23T03:46:05.208Z,10.20
2022-12-23T03:48:42.688Z,10.20
2022-12-23T03:51:26.266Z,10.20
2022-12-23T03:54:02.717Z,10.20
2022-12-23T03:56:41.074Z,10.20
2022-12-23T03:59:22.396Z,10.20
2022-12-23T04:02:12.162Z,10.30
2022-12-23T04:05:10.523Z,10.20
2022-12-23T04:07:40.987Z,10.20
2022-12-23T04:10:09.777Z,10.20
2022-12-23T04:12:38.050Z,10.20
2022-12-23T04:15:12.311Z,10.20
2022-12-23T04:17:39.840Z,10.20
2022-12-23T04:20:07.809Z,10.20
2022-12-23T04:22:34.574Z,10.20
2022-12-23T04:25:01.477Z,10.20
2022-12-23T04:27:28.250Z,10.20
2022-12-23T04:29:55.005Z,10.20
2022-12-23T04:32:21.847Z,10.20
2022-12-23T04:34:48.639Z,10.20
2022-12-23T04:37:15.483Z,10.20
2022-12-23T04:39:42.284Z,10.20
2022-12-23T04:42:09.115Z,10.20
2022-12-23T04:44:35.845Z,10.20
2022-12-23T04:47:03.173Z,10.20
2022-12-23T04:49:31.492Z,10.20
2022-12-23T04:51:58.525Z,10.20
2022-12-23T04:54:25.312Z,10.10
2022-12-23T04:56:52.123Z,10.10
2022-12-23T04:59:19.880Z,10.20
2022-12-23T05:01:46.887Z,10.20
2022-12-23T05:04:14.089Z,10.20
2022-12-23T05:06:41.015Z,10.10
2022-12-23T05:09:08.239Z,10.20
2022-12-23T05:11:40.172Z,10.20
2022-12-23T05:14:11.074Z,10.20
2022-12-23T05:16:38.306Z,10.10
2022-12-23T05:19:05.217Z,10.10
2022-12-23T05:21:32.026Z,10.10
2022-12-23T05:23:58.817Z,10.10
2022-12-23T05:26:25.649Z,10.10
2022-12-23T05:28:52.419Z,10.10
2022-12-23T05:31:19.273Z,10.10
2022-12-23T05:33:46.089Z,10.10
2022-12-23T05:36:13.345Z,10.20
2022-12-23T05:38:40.191Z,10.20
2022-12-23T05:41:07.699Z,10.20
2022-12-23T05:43:34.581Z,10.20
2022-12-23T05:46:01.463Z,10.20
2022-12-23T05:48:28.321Z,10.20
2022-12-23T05:50:55.157Z,10.20
2022-12-23T05:53:22.399Z,10.20
2022-12-23T05:55:49.243Z,10.20
2022-12-23T05:58:16.254Z,10.20
2022-12-23T06:00:43.574Z,10.20
2022-12-23T06:03:11.796Z,10.20
2022-12-23T06:05:40.281Z,10.20
2022-12-23T06:08:07.069Z,10.20
2022-12-23T06:10:33.832Z,10.20
2022-12-23T06:13:00.618Z,10.20
2022-12-23T06:15:27.505Z,10.20
2022-12-23T06:17:56.081Z,10.20
2022-12-23T06:20:22.909Z,10.20
2022-12-23T06:22:49.748Z,10.20
2022-12-23T06:25:16.613Z,10.20
2022-12-23T06:27:43.403Z,10.30
2022-12-23T06:30:11.138Z,10.30
2022-12-23T06:32:38.964Z,10.30
2022-12-23T06:35:07.711Z,10.30
2022-12-23T06:37:35.048Z,10.30
2022-12-23T06:40:01.864Z,10.30
2022-12-23T06:42:28.645Z,10.30
2022-12-23T06:44:55.433Z,10.30
2022-12-23T06:47:22.187Z,10.30
2022-12-23T06:49:49.098Z,10.30
2022-12-23T06:52:15.995Z,10.30
2022-12-23T06:54:42.792Z,10.30
2022-12-23T06:57:09.578Z,10.30
2022-12-23T06:59:36.363Z,10.30
2022-12-23T07:02:03.867Z,10.30
2022-12-23T07:04:31.139Z,10.30
2022-12-23T07:06:58.733Z,10.30
2022-12-23T07:09:26.130Z,10.30
2022-12-23T07:11:52.870Z,10.30
2022-12-23T07:14:19.629Z,10.30
2022-12-23T07:16:46.433Z,10.30
2022-12-23T07:19:13.321Z,10.30
2022-12-23T07:21:40.109Z,10.30
2022-12-23T07:24:07.673Z,10.30
2022-12-23T07:26:34.433Z,10.30
2022-12-23T07:29:02.138Z,10.30
2022-12-23T07:31:29.234Z,10.30
2022-12-23T07:33:55.988Z,10.30
2022-12-23T07:36:22.726Z,10.30
2022-12-23T07:38:51.497Z,10.40
2022-12-23T07:41:18.553Z,10.40
2022-12-23T07:43:45.948Z,10.40
2022-12-23T07:46:12.872Z,10.40
2022-12-23T07:48:42.841Z,10.40
2022-12-23T07:51:09.879Z,10.50
2022-12-23T07:53:36.739Z,10.50
2022-12-23T07:56:03.845Z,10.50
2022-12-23T07:58:30.636Z,10.50
2022-12-23T08:01:05.655Z,10.50
2022-12-23T08:03:32.604Z,10.50
2022-12-23T08:06:19.792Z,10.60
2022-12-23T08:08:47.084Z,10.60
2022-12-23T08:11:15.416Z,10.60
2022-12-23T08:13:44.889Z,10.70
2022-12-23T08:16:12.465Z,10.70
2022-12-23T08:18:41.539Z,10.70
2022-12-23T08:21:19.483Z,10.70
2022-12-23T08:23:48.170Z,10.80
2022-12-23T08:26:18.767Z,10.80
2022-12-23T08:28:46.178Z,10.80
2022-12-23T08:31:21.918Z,10.80
2022-12-23T08:33:51.941Z,10.90
2022-12-23T08:36:23.743Z,10.90
2022-12-23T08:38:53.754Z,10.90
2022-12-23T08:41:25.334Z,10.90
2022-12-23T08:43:53.221Z,10.90
2022-12-23T08:46:20.283Z,10.90
2022-12-23T08:48:49.731Z,10.90
2022-12-23T08:51:20.341Z,11.00
2022-12-23T08:53:47.987Z,11.00
2022-12-23T08:56:18.943Z,11.00
2022-12-23T08:58:49.533Z,11.00
2022-12-23T09:01:19.784Z,11.10
2022-12-23T09:03:47.152Z,11.10
2022-12-23T09:06:28.251Z,11.10
2022-12-23T09:08:56.421Z,11.20
2022-12-23T09:11:26.404Z,11.20
2022-12-23T09:13:53.885Z,11.30
2022-12-23T09:16:22.628Z,11.30
2022-12-23T09:18:49.497Z,11.30
2022-12-23T09:21:20.532Z,11.40
2022-12-23T09:23:48.148Z,11.40
2022-12-23T09:26:28.222Z,11.40
2022-12-23T09:28:55.944Z,11.40
2022-12-23T09:31:24.742Z,11.50
2022-12-23T09:33:53.877Z,11.50
2022-12-23T09:36:22.386Z,11.50
2022-12-23T09:38:57.886Z,11.60
2022-12-23T09:41:54.495Z,11.60
2022-12-23T09:45:12.954Z,11.60
2022-12-23T09:47:41.681Z,11.60
2022-12-23T09:50:29.029Z,11.70
2022-12-23T09:53:07.875Z,11.60
2022-12-23T09:55:59.689Z,11.70
2022-12-23T09:58:47.098Z,11.70
2022-12-23T10:01:49.398Z,11.70
2022-12-23T10:04:36.972Z,11.70
2022-12-23T10:07:03.784Z,11.70
2022-12-23T10:09:38.949Z,11.80
2022-12-23T10:12:41.094Z,11.90
2022-12-23T10:15:30.146Z,11.90
2022-12-23T10:18:17.618Z,11.90
2022-12-23T10:21:46.895Z,11.90
2022-12-23T10:24:27.022Z,11.90
2022-12-23T10:27:25.722Z,12.00
2022-12-23T10:29:52.579Z,12.00
2022-12-23T10:32:59.195Z,12.10
2022-12-23T10:35:46.199Z,12.10
2022-12-23T10:38:42.931Z,12.10
2022-12-23T10:41:38.125Z,12.10
2022-12-23T10:44:41.381Z,12.20
2022-12-23T10:48:06.073Z,12.10
2022-12-23T10:50:56.663Z,12.10
2022-12-23T10:53:35.712Z,12.20
2022-12-23T10:56:05.539Z,12.10
